sensor_id;sensor_type;location;lat;lon;timestamp;pressure;altitude;pressure_sealevel;temperature;humidity
40948;BME280;49382;-25.924;28.194;2023-06-22T00:02:18;85526.79;;;13.17;20.89
40948;BME280;49382;-25.924;28.194;2023-06-22T00:04:44;85525.77;;;12.97;20.95
40948;BME280;49382;-25.924;28.194;2023-06-22T00:07:08;85523.00;;;13.66;20.41
40948;BME280;49382;-25.924;28.194;2023-06-22T00:09:34;85521.69;;;13.43;20.35
40948;BME280;49382;-25.924;28.194;2023-06-22T00:11:59;85523.46;;;13.57;20.62
40948;BME280;49382;-25.924;28.194;2023-06-22T00:14:25;85528.98;;;13.72;20.03
40948;BME280;49382;-25.924;28.194;2023-06-22T00:16:50;85527.76;;;13.74;20.22
40948;BME280;49382;-25.924;28.194;2023-06-22T00:19:15;85527.27;;;13.58;20.76
40948;BME280;49382;-25.924;28.194;2023-06-22T00:21:40;85529.73;;;13.29;20.77
40948;BME280;49382;-25.924;28.194;2023-06-22T00:24:06;85526.52;;;13.29;20.62
40948;BME280;49382;-25.924;28.194;2023-06-22T00:26:31;85531.82;;;13.19;20.66
40948;BME280;49382;-25.924;28.194;2023-06-22T00:28:56;85533.16;;;13.72;19.82
40948;BME280;49382;-25.924;28.194;2023-06-22T00:31:22;85526.45;;;13.46;20.86
40948;BME280;49382;-25.924;28.194;2023-06-22T00:33:47;85523.59;;;12.82;21.80
40948;BME280;49382;-25.924;28.194;2023-06-22T00:36:12;85518.24;;;12.43;21.73
40948;BME280;49382;-25.924;28.194;2023-06-22T00:38:38;85516.68;;;12.65;21.60
40948;BME280;49382;-25.924;28.194;2023-06-22T00:41:04;85517.94;;;12.80;21.12
40948;BME280;49382;-25.924;28.194;2023-06-22T00:43:30;85519.03;;;12.38;21.30
40948;BME280;49382;-25.924;28.194;2023-06-22T00:45:56;85520.76;;;13.44;19.73
40948;BME280;49382;-25.924;28.194;2023-06-22T00:48:20;85517.33;;;13.71;19.21
40948;BME280;49382;-25.924;28.194;2023-06-22T00:50:46;85519.12;;;13.08;20.66
40948;BME280;49382;-25.924;28.194;2023-06-22T00:53:12;85517.27;;;13.12;20.19
40948;BME280;49382;-25.924;28.194;2023-06-22T00:55:41;85519.66;;;12.75;21.08
40948;BME280;49382;-25.924;28.194;2023-06-22T00:58:03;85519.97;;;12.80;20.70
40948;BME280;49382;-25.924;28.194;2023-06-22T01:00:28;85520.54;;;12.79;20.86
40948;BME280;49382;-25.924;28.194;2023-06-22T01:02:54;85524.58;;;13.08;21.29
40948;BME280;49382;-25.924;28.194;2023-06-22T01:05:19;85526.85;;;13.11;21.14
40948;BME280;49382;-25.924;28.194;2023-06-22T01:07:54;85527.28;;;13.02;21.37
40948;BME280;49382;-25.924;28.194;2023-06-22T01:10:16;85527.02;;;13.77;20.31
40948;BME280;49382;-25.924;28.194;2023-06-22T01:12:38;85523.65;;;13.23;20.77
40948;BME280;49382;-25.924;28.194;2023-06-22T01:15:04;85526.48;;;13.30;20.65
40948;BME280;49382;-25.924;28.194;2023-06-22T01:17:27;85525.02;;;13.42;20.34
40948;BME280;49382;-25.924;28.194;2023-06-22T01:19:53;85526.16;;;13.18;20.78
40948;BME280;49382;-25.924;28.194;2023-06-22T01:22:17;85526.80;;;13.50;20.50
40948;BME280;49382;-25.924;28.194;2023-06-22T01:24:51;85524.24;;;13.30;20.70
40948;BME280;49382;-25.924;28.194;2023-06-22T01:27:14;85530.07;;;12.95;21.28
40948;BME280;49382;-25.924;28.194;2023-06-22T01:29:33;85531.50;;;13.59;21.27
40948;BME280;49382;-25.924;28.194;2023-06-22T01:31:58;85534.92;;;13.47;21.63
40948;BME280;49382;-25.924;28.194;2023-06-22T01:34:24;85539.33;;;13.24;21.77
40948;BME280;49382;-25.924;28.194;2023-06-22T01:36:48;85537.90;;;13.28;22.20
40948;BME280;49382;-25.924;28.194;2023-06-22T01:39:14;85532.38;;;12.63;22.87
40948;BME280;49382;-25.924;28.194;2023-06-22T01:41:40;85534.20;;;13.42;22.18
40948;BME280;49382;-25.924;28.194;2023-06-22T01:44:06;85528.69;;;12.78;22.92
40948;BME280;49382;-25.924;28.194;2023-06-22T01:46:30;85527.92;;;12.37;23.09
40948;BME280;49382;-25.924;28.194;2023-06-22T01:48:56;85527.32;;;11.94;23.55
40948;BME280;49382;-25.924;28.194;2023-06-22T01:51:21;85525.00;;;12.27;23.53
40948;BME280;49382;-25.924;28.194;2023-06-22T01:53:46;85518.07;;;12.66;23.12
40948;BME280;49382;-25.924;28.194;2023-06-22T01:56:12;85519.54;;;12.29;23.24
40948;BME280;49382;-25.924;28.194;2023-06-22T01:58:40;85521.47;;;12.32;23.18
40948;BME280;49382;-25.924;28.194;2023-06-22T02:01:09;85520.46;;;12.53;22.15
40948;BME280;49382;-25.924;28.194;2023-06-22T02:03:31;85519.43;;;12.16;22.22
40948;BME280;49382;-25.924;28.194;2023-06-22T02:05:58;85521.64;;;12.90;21.67
40948;BME280;49382;-25.924;28.194;2023-06-22T02:08:21;85522.11;;;12.44;21.49
40948;BME280;49382;-25.924;28.194;2023-06-22T02:10:46;85529.43;;;12.18;22.37
40948;BME280;49382;-25.924;28.194;2023-06-22T02:13:11;85528.85;;;12.40;21.70
40948;BME280;49382;-25.924;28.194;2023-06-22T02:15:35;85532.82;;;12.78;21.06
40948;BME280;49382;-25.924;28.194;2023-06-22T02:18:01;85531.35;;;13.07;20.42
40948;BME280;49382;-25.924;28.194;2023-06-22T02:20:26;85532.89;;;13.36;20.10
40948;BME280;49382;-25.924;28.194;2023-06-22T02:22:52;85530.58;;;12.61;21.96
40948;BME280;49382;-25.924;28.194;2023-06-22T02:25:17;85531.74;;;12.94;21.02
40948;BME280;49382;-25.924;28.194;2023-06-22T02:27:44;85532.32;;;12.89;21.37
40948;BME280;49382;-25.924;28.194;2023-06-22T02:30:09;85531.62;;;13.16;20.67
40948;BME280;49382;-25.924;28.194;2023-06-22T02:32:33;85527.08;;;12.52;21.22
40948;BME280;49382;-25.924;28.194;2023-06-22T02:34:59;85531.64;;;13.23;20.40
40948;BME280;49382;-25.924;28.194;2023-06-22T02:37:24;85531.86;;;13.26;20.41
40948;BME280;49382;-25.924;28.194;2023-06-22T02:39:50;85531.57;;;13.12;20.41
40948;BME280;49382;-25.924;28.194;2023-06-22T02:42:14;85531.78;;;13.61;20.13
40948;BME280;49382;-25.924;28.194;2023-06-22T02:44:40;85536.79;;;14.00;19.60
40948;BME280;49382;-25.924;28.194;2023-06-22T02:47:06;85539.67;;;13.82;20.69
40948;BME280;49382;-25.924;28.194;2023-06-22T02:49:31;85537.22;;;12.62;21.50
40948;BME280;49382;-25.924;28.194;2023-06-22T02:51:58;85539.85;;;12.19;22.60
40948;BME280;49382;-25.924;28.194;2023-06-22T02:54:22;85541.08;;;12.24;22.44
40948;BME280;49382;-25.924;28.194;2023-06-22T02:56:47;85537.95;;;12.43;21.95
40948;BME280;49382;-25.924;28.194;2023-06-22T02:59:12;85541.15;;;12.79;21.85
40948;BME280;49382;-25.924;28.194;2023-06-22T03:01:37;85537.99;;;12.71;22.00
40948;BME280;49382;-25.924;28.194;2023-06-22T03:04:03;85536.74;;;12.41;22.47
40948;BME280;49382;-25.924;28.194;2023-06-22T03:06:28;85537.65;;;12.76;22.10
40948;BME280;49382;-25.924;28.194;2023-06-22T03:08:58;85539.42;;;12.58;22.25
40948;BME280;49382;-25.924;28.194;2023-06-22T03:11:20;85537.70;;;11.44;23.34
40948;BME280;49382;-25.924;28.194;2023-06-22T03:13:45;85538.28;;;12.07;22.55
40948;BME280;49382;-25.924;28.194;2023-06-22T03:16:10;85533.55;;;11.77;22.30
40948;BME280;49382;-25.924;28.194;2023-06-22T03:18:36;85529.65;;;12.38;22.26
40948;BME280;49382;-25.924;28.194;2023-06-22T03:21:01;85530.79;;;12.12;22.81
40948;BME280;49382;-25.924;28.194;2023-06-22T03:23:27;85533.31;;;12.92;21.89
40948;BME280;49382;-25.924;28.194;2023-06-22T03:25:52;85534.78;;;12.42;21.82
40948;BME280;49382;-25.924;28.194;2023-06-22T03:28:18;85538.74;;;13.15;21.42
40948;BME280;49382;-25.924;28.194;2023-06-22T03:30:44;85533.19;;;12.69;21.40
40948;BME280;49382;-25.924;28.194;2023-06-22T03:33:08;85536.63;;;13.27;21.05
40948;BME280;49382;-25.924;28.194;2023-06-22T03:35:34;85529.78;;;13.22;21.12
40948;BME280;49382;-25.924;28.194;2023-06-22T03:37:59;85532.25;;;13.07;21.47
40948;BME280;49382;-25.924;28.194;2023-06-22T03:40:25;85528.47;;;12.41;21.87
40948;BME280;49382;-25.924;28.194;2023-06-22T03:42:51;85529.39;;;13.32;20.91
40948;BME280;49382;-25.924;28.194;2023-06-22T03:45:16;85527.34;;;12.09;22.31
40948;BME280;49382;-25.924;28.194;2023-06-22T03:47:42;85529.28;;;12.64;22.01
40948;BME280;49382;-25.924;28.194;2023-06-22T03:50:07;85537.43;;;13.41;21.37
40948;BME280;49382;-25.924;28.194;2023-06-22T03:52:32;85541.29;;;12.94;21.18
40948;BME280;49382;-25.924;28.194;2023-06-22T03:54:57;85545.14;;;13.21;20.96
40948;BME280;49382;-25.924;28.194;2023-06-22T03:57:22;85544.92;;;13.27;20.79
40948;BME280;49382;-25.924;28.194;2023-06-22T03:59:48;85547.51;;;13.05;20.82
40948;BME280;49382;-25.924;28.194;2023-06-22T04:02:13;85551.41;;;13.17;21.01
40948;BME280;49382;-25.924;28.194;2023-06-22T04:04:39;85552.05;;;13.19;21.30
40948;BME280;49382;-25.924;28.194;2023-06-22T04:07:05;85543.88;;;12.63;22.15
40948;BME280;49382;-25.924;28.194;2023-06-22T04:09:30;85545.44;;;13.12;22.32
40948;BME280;49382;-25.924;28.194;2023-06-22T04:11:55;85549.73;;;12.21;22.77
40948;BME280;49382;-25.924;28.194;2023-06-22T04:14:20;85555.11;;;12.74;22.43
40948;BME280;49382;-25.924;28.194;2023-06-22T04:16:46;85554.61;;;12.69;22.06
40948;BME280;49382;-25.924;28.194;2023-06-22T04:19:11;85565.18;;;13.04;21.75
40948;BME280;49382;-25.924;28.194;2023-06-22T04:21:37;85563.61;;;12.80;22.26
40948;BME280;49382;-25.924;28.194;2023-06-22T04:24:03;85561.92;;;12.49;22.80
40948;BME280;49382;-25.924;28.194;2023-06-22T04:26:29;85561.41;;;12.81;22.85
40948;BME280;49382;-25.924;28.194;2023-06-22T04:28:54;85567.07;;;12.50;23.23
40948;BME280;49382;-25.924;28.194;2023-06-22T04:31:19;85568.75;;;11.75;23.61
40948;BME280;49382;-25.924;28.194;2023-06-22T04:33:45;85571.23;;;11.75;24.22
40948;BME280;49382;-25.924;28.194;2023-06-22T04:36:10;85575.52;;;11.50;24.89
40948;BME280;49382;-25.924;28.194;2023-06-22T04:38:35;85576.01;;;11.74;24.25
40948;BME280;49382;-25.924;28.194;2023-06-22T04:41:01;85575.35;;;11.95;23.84
40948;BME280;49382;-25.924;28.194;2023-06-22T04:43:26;85579.72;;;12.02;23.43
40948;BME280;49382;-25.924;28.194;2023-06-22T04:45:52;85580.28;;;11.59;24.13
40948;BME280;49382;-25.924;28.194;2023-06-22T04:48:17;85579.81;;;11.77;23.90
40948;BME280;49382;-25.924;28.194;2023-06-22T04:50:43;85583.19;;;11.88;23.89
40948;BME280;49382;-25.924;28.194;2023-06-22T04:53:08;85586.04;;;11.93;23.95
40948;BME280;49382;-25.924;28.194;2023-06-22T04:55:33;85585.65;;;12.40;23.68
40948;BME280;49382;-25.924;28.194;2023-06-22T04:57:58;85592.25;;;12.29;23.47
40948;BME280;49382;-25.924;28.194;2023-06-22T05:00:23;85596.04;;;12.74;23.47
40948;BME280;49382;-25.924;28.194;2023-06-22T05:02:49;85599.39;;;12.30;23.53
40948;BME280;49382;-25.924;28.194;2023-06-22T05:05:14;85596.98;;;12.48;23.16
40948;BME280;49382;-25.924;28.194;2023-06-22T05:07:41;85599.12;;;12.71;22.84
40948;BME280;49382;-25.924;28.194;2023-06-22T05:10:05;85590.81;;;12.85;22.72
40948;BME280;49382;-25.924;28.194;2023-06-22T05:12:30;85593.13;;;13.19;22.04
40948;BME280;49382;-25.924;28.194;2023-06-22T05:14:56;85596.14;;;13.18;22.16
40948;BME280;49382;-25.924;28.194;2023-06-22T05:17:21;85599.84;;;13.11;22.52
40948;BME280;49382;-25.924;28.194;2023-06-22T05:19:46;85600.85;;;13.38;22.45
40948;BME280;49382;-25.924;28.194;2023-06-22T05:22:11;85600.31;;;12.81;22.83
40948;BME280;49382;-25.924;28.194;2023-06-22T05:24:37;85602.17;;;13.68;21.78
40948;BME280;49382;-25.924;28.194;2023-06-22T05:27:03;85601.19;;;12.99;22.09
40948;BME280;49382;-25.924;28.194;2023-06-22T05:29:30;85603.68;;;13.71;21.48
40948;BME280;49382;-25.924;28.194;2023-06-22T05:31:54;85608.10;;;13.74;20.73
40948;BME280;49382;-25.924;28.194;2023-06-22T05:34:20;85613.88;;;13.50;21.30
40948;BME280;49382;-25.924;28.194;2023-06-22T05:36:45;85616.86;;;13.93;21.20
40948;BME280;49382;-25.924;28.194;2023-06-22T05:39:14;85623.08;;;14.13;21.34
40948;BME280;49382;-25.924;28.194;2023-06-22T05:41:35;85627.21;;;14.70;21.55
40948;BME280;49382;-25.924;28.194;2023-06-22T05:44:01;85629.41;;;15.24;21.85
40948;BME280;49382;-25.924;28.194;2023-06-22T05:46:27;85633.47;;;14.43;21.69
40948;BME280;49382;-25.924;28.194;2023-06-22T05:48:52;85638.42;;;14.57;21.34
40948;BME280;49382;-25.924;28.194;2023-06-22T05:51:18;85638.55;;;14.26;21.48
40948;BME280;49382;-25.924;28.194;2023-06-22T05:53:43;85644.68;;;14.66;20.85
40948;BME280;49382;-25.924;28.194;2023-06-22T05:56:08;85642.87;;;15.44;20.55
40948;BME280;49382;-25.924;28.194;2023-06-22T05:58:34;85640.95;;;15.10;20.73
40948;BME280;49382;-25.924;28.194;2023-06-22T06:00:59;85637.41;;;15.58;21.12
40948;BME280;49382;-25.924;28.194;2023-06-22T06:03:24;85639.41;;;15.19;20.53
40948;BME280;49382;-25.924;28.194;2023-06-22T06:05:50;85639.66;;;15.46;20.04
40948;BME280;49382;-25.924;28.194;2023-06-22T06:08:16;85635.84;;;15.75;20.56
40948;BME280;49382;-25.924;28.194;2023-06-22T06:10:41;85638.71;;;15.62;21.18
40948;BME280;49382;-25.924;28.194;2023-06-22T06:13:07;85642.20;;;15.70;20.88
40948;BME280;49382;-25.924;28.194;2023-06-22T06:15:33;85639.36;;;16.16;20.40
40948;BME280;49382;-25.924;28.194;2023-06-22T06:17:58;85642.02;;;16.15;20.94
40948;BME280;49382;-25.924;28.194;2023-06-22T06:20:24;85644.14;;;16.56;20.23
40948;BME280;49382;-25.924;28.194;2023-06-22T06:22:49;85645.70;;;16.63;19.44
40948;BME280;49382;-25.924;28.194;2023-06-22T06:25:15;85649.85;;;16.77;19.72
40948;BME280;49382;-25.924;28.194;2023-06-22T06:27:40;85649.09;;;17.15;20.30
40948;BME280;49382;-25.924;28.194;2023-06-22T06:30:07;85649.67;;;17.16;19.43
40948;BME280;49382;-25.924;28.194;2023-06-22T06:32:32;85653.28;;;18.11;19.92
40948;BME280;49382;-25.924;28.194;2023-06-22T06:34:56;85655.17;;;17.82;19.26
40948;BME280;49382;-25.924;28.194;2023-06-22T06:37:21;85655.77;;;18.18;18.60
40948;BME280;49382;-25.924;28.194;2023-06-22T06:39:47;85660.77;;;19.65;17.73
40948;BME280;49382;-25.924;28.194;2023-06-22T06:42:12;85667.96;;;23.50;14.81
40948;BME280;49382;-25.924;28.194;2023-06-22T06:44:38;85677.36;;;27.49;12.77
40948;BME280;49382;-25.924;28.194;2023-06-22T06:47:03;85677.58;;;30.14;10.78
40948;BME280;49382;-25.924;28.194;2023-06-22T06:49:28;85685.91;;;32.08;9.56
40948;BME280;49382;-25.924;28.194;2023-06-22T06:51:53;85683.62;;;34.28;7.97
40948;BME280;49382;-25.924;28.194;2023-06-22T06:54:19;85688.95;;;35.24;7.00
40948;BME280;49382;-25.924;28.194;2023-06-22T06:56:44;85695.25;;;37.67;6.58
40948;BME280;49382;-25.924;28.194;2023-06-22T06:59:09;85697.51;;;37.29;6.56
40948;BME280;49382;-25.924;28.194;2023-06-22T07:01:34;85694.58;;;38.58;6.02
40948;BME280;49382;-25.924;28.194;2023-06-22T07:04:00;85695.94;;;40.12;5.29
40948;BME280;49382;-25.924;28.194;2023-06-22T07:06:25;85694.03;;;40.09;5.06
40948;BME280;49382;-25.924;28.194;2023-06-22T07:08:51;85698.37;;;41.91;4.29
40948;BME280;49382;-25.924;28.194;2023-06-22T07:11:16;85698.08;;;42.97;3.88
40948;BME280;49382;-25.924;28.194;2023-06-22T07:13:42;85702.42;;;43.43;3.65
40948;BME280;49382;-25.924;28.194;2023-06-22T07:16:07;85701.01;;;43.14;3.27
40948;BME280;49382;-25.924;28.194;2023-06-22T07:18:32;85697.81;;;43.34;3.45
40948;BME280;49382;-25.924;28.194;2023-06-22T07:20:57;85700.43;;;44.49;3.21
40948;BME280;49382;-25.924;28.194;2023-06-22T07:23:23;85700.04;;;45.35;2.86
40948;BME280;49382;-25.924;28.194;2023-06-22T07:25:49;85696.11;;;43.93;2.97
40948;BME280;49382;-25.924;28.194;2023-06-22T07:28:15;85696.98;;;44.68;2.82
40948;BME280;49382;-25.924;28.194;2023-06-22T07:30:41;85704.67;;;45.66;3.00
40948;BME280;49382;-25.924;28.194;2023-06-22T07:33:06;85703.36;;;45.39;2.51
40948;BME280;49382;-25.924;28.194;2023-06-22T07:35:32;85705.52;;;45.21;2.66
40948;BME280;49382;-25.924;28.194;2023-06-22T07:37:57;85705.13;;;45.38;2.58
40948;BME280;49382;-25.924;28.194;2023-06-22T07:40:23;85708.90;;;46.83;2.52
40948;BME280;49382;-25.924;28.194;2023-06-22T07:42:48;85703.36;;;44.21;2.91
40948;BME280;49382;-25.924;28.194;2023-06-22T07:45:14;85707.60;;;45.99;2.63
40948;BME280;49382;-25.924;28.194;2023-06-22T07:47:39;85709.39;;;44.83;2.55
40948;BME280;49382;-25.924;28.194;2023-06-22T07:50:06;85708.01;;;45.81;2.31
40948;BME280;49382;-25.924;28.194;2023-06-22T07:52:31;85707.50;;;45.60;2.87
40948;BME280;49382;-25.924;28.194;2023-06-22T07:54:57;85708.07;;;47.05;2.07
40948;BME280;49382;-25.924;28.194;2023-06-22T07:57:22;85704.48;;;44.83;2.79
40948;BME280;49382;-25.924;28.194;2023-06-22T07:59:47;85706.15;;;45.27;3.00
40948;BME280;49382;-25.924;28.194;2023-06-22T08:02:13;85705.95;;;46.25;2.22
40948;BME280;49382;-25.924;28.194;2023-06-22T08:04:39;85703.81;;;45.83;2.53
40948;BME280;49382;-25.924;28.194;2023-06-22T08:07:05;85706.72;;;46.16;1.92
40948;BME280;49382;-25.924;28.194;2023-06-22T08:09:31;85706.08;;;46.73;2.17
40948;BME280;49382;-25.924;28.194;2023-06-22T08:11:56;85704.33;;;48.65;1.89
40948;BME280;49382;-25.924;28.194;2023-06-22T08:14:21;85704.25;;;47.90;2.34
40948;BME280;49382;-25.924;28.194;2023-06-22T08:16:47;85702.51;;;49.14;2.36
40948;BME280;49382;-25.924;28.194;2023-06-22T08:19:12;85703.46;;;47.98;2.11
40948;BME280;49382;-25.924;28.194;2023-06-22T08:21:38;85697.44;;;48.09;1.76
40948;BME280;49382;-25.924;28.194;2023-06-22T08:24:04;85699.69;;;49.29;1.87
40948;BME280;49382;-25.924;28.194;2023-06-22T08:26:29;85697.95;;;50.46;1.49
40948;BME280;49382;-25.924;28.194;2023-06-22T08:28:55;85698.33;;;48.79;1.68
40948;BME280;49382;-25.924;28.194;2023-06-22T08:31:21;85698.42;;;49.45;1.60
40948;BME280;49382;-25.924;28.194;2023-06-22T08:33:45;85699.80;;;50.62;1.01
40948;BME280;49382;-25.924;28.194;2023-06-22T08:36:11;85697.14;;;50.06;0.54
40948;BME280;49382;-25.924;28.194;2023-06-22T08:38:36;85690.62;;;48.97;0.98
40948;BME280;49382;-25.924;28.194;2023-06-22T08:41:01;85694.26;;;50.39;0.78
40948;BME280;49382;-25.924;28.194;2023-06-22T08:43:26;85692.89;;;49.51;0.60
40948;BME280;49382;-25.924;28.194;2023-06-22T08:45:52;85693.82;;;52.27;0.08
40948;BME280;49382;-25.924;28.194;2023-06-22T08:48:17;85691.71;;;51.08;0.80
40948;BME280;49382;-25.924;28.194;2023-06-22T08:50:43;85682.48;;;49.09;0.80
40948;BME280;49382;-25.924;28.194;2023-06-22T08:53:08;85681.40;;;48.86;0.78
40948;BME280;49382;-25.924;28.194;2023-06-22T08:55:35;85680.58;;;47.60;0.90
40948;BME280;49382;-25.924;28.194;2023-06-22T08:58:00;85680.71;;;49.34;0.61
40948;BME280;49382;-25.924;28.194;2023-06-22T09:00:25;85680.95;;;49.11;1.15
40948;BME280;49382;-25.924;28.194;2023-06-22T09:02:51;85681.43;;;51.79;0.55
40948;BME280;49382;-25.924;28.194;2023-06-22T09:05:16;85681.46;;;51.92;0.26
40948;BME280;49382;-25.924;28.194;2023-06-22T09:07:42;85675.77;;;48.82;1.05
40948;BME280;49382;-25.924;28.194;2023-06-22T09:10:09;85675.63;;;47.95;0.74
40948;BME280;49382;-25.924;28.194;2023-06-22T09:12:33;85674.48;;;47.08;1.60
40948;BME280;49382;-25.924;28.194;2023-06-22T09:14:59;85666.37;;;43.58;2.95
40948;BME280;49382;-25.924;28.194;2023-06-22T09:17:25;85654.55;;;41.15;3.23
40948;BME280;49382;-25.924;28.194;2023-06-22T09:19:50;85643.18;;;32.81;6.09
40948;BME280;49382;-25.924;28.194;2023-06-22T09:22:16;85644.04;;;35.44;5.59
40948;BME280;49382;-25.924;28.194;2023-06-22T09:24:41;85640.74;;;30.94;8.66
40948;BME280;49382;-25.924;28.194;2023-06-22T09:27:07;85637.97;;;31.60;8.14
40948;BME280;49382;-25.924;28.194;2023-06-22T09:29:33;85637.41;;;28.14;8.64
40948;BME280;49382;-25.924;28.194;2023-06-22T09:31:59;85641.01;;;27.79;14.44
40948;BME280;49382;-25.924;28.194;2023-06-22T09:34:24;85637.53;;;27.93;11.88
40948;BME280;49382;-25.924;28.194;2023-06-22T09:36:49;85629.59;;;26.72;11.68
40948;BME280;49382;-25.924;28.194;2023-06-22T09:39:17;85627.06;;;27.40;11.34
40948;BME280;49382;-25.924;28.194;2023-06-22T09:41:41;85627.57;;;27.62;10.10
40948;BME280;49382;-25.924;28.194;2023-06-22T09:44:06;85625.28;;;27.99;9.49
40948;BME280;49382;-25.924;28.194;2023-06-22T09:46:32;85624.23;;;26.85;11.95
40948;BME280;49382;-25.924;28.194;2023-06-22T09:48:57;85623.39;;;25.83;14.14
40948;BME280;49382;-25.924;28.194;2023-06-22T09:51:23;85623.75;;;24.79;13.06
40948;BME280;49382;-25.924;28.194;2023-06-22T09:53:48;85620.52;;;24.47;14.43
40948;BME280;49382;-25.924;28.194;2023-06-22T09:56:13;85620.88;;;24.93;13.80
40948;BME280;49382;-25.924;28.194;2023-06-22T09:58:39;85617.44;;;24.73;14.06
40948;BME280;49382;-25.924;28.194;2023-06-22T10:01:04;85616.98;;;24.52;14.21
40948;BME280;49382;-25.924;28.194;2023-06-22T10:03:29;85612.61;;;24.77;14.09
40948;BME280;49382;-25.924;28.194;2023-06-22T10:05:54;85610.48;;;25.31;13.55
40948;BME280;49382;-25.924;28.194;2023-06-22T10:08:19;85607.57;;;24.65;13.96
40948;BME280;49382;-25.924;28.194;2023-06-22T10:10:45;85610.19;;;24.74;14.00
40948;BME280;49382;-25.924;28.194;2023-06-22T10:13:12;85603.04;;;24.94;14.56
40948;BME280;49382;-25.924;28.194;2023-06-22T10:15:37;85601.84;;;24.43;14.85
40948;BME280;49382;-25.924;28.194;2023-06-22T10:18:03;85601.18;;;24.37;12.36
40948;BME280;49382;-25.924;28.194;2023-06-22T10:20:27;85597.76;;;23.47;14.29
40948;BME280;49382;-25.924;28.194;2023-06-22T10:22:53;85591.40;;;24.36;13.16
40948;BME280;49382;-25.924;28.194;2023-06-22T10:25:19;85588.46;;;24.45;14.02
40948;BME280;49382;-25.924;28.194;2023-06-22T10:27:45;85583.12;;;23.11;14.51
40948;BME280;49382;-25.924;28.194;2023-06-22T10:30:12;85586.74;;;24.52;15.27
40948;BME280;49382;-25.924;28.194;2023-06-22T10:32:38;85583.76;;;24.83;13.83
40948;BME280;49382;-25.924;28.194;2023-06-22T10:35:03;85583.95;;;24.42;16.16
40948;BME280;49382;-25.924;28.194;2023-06-22T10:37:28;85577.88;;;23.86;15.79
40948;BME280;49382;-25.924;28.194;2023-06-22T10:39:54;85574.91;;;23.87;14.35
40948;BME280;49382;-25.924;28.194;2023-06-22T10:42:20;85571.80;;;23.35;15.74
40948;BME280;49382;-25.924;28.194;2023-06-22T10:44:46;85570.03;;;24.37;16.32
40948;BME280;49382;-25.924;28.194;2023-06-22T10:47:11;85566.18;;;23.77;15.36
40948;BME280;49382;-25.924;28.194;2023-06-22T10:49:38;85557.61;;;22.69;14.90
40948;BME280;49382;-25.924;28.194;2023-06-22T10:52:03;85559.37;;;24.32;14.53
40948;BME280;49382;-25.924;28.194;2023-06-22T10:54:29;85553.91;;;24.46;14.45
40948;BME280;49382;-25.924;28.194;2023-06-22T10:56:54;85553.87;;;24.22;14.81
40948;BME280;49382;-25.924;28.194;2023-06-22T10:59:20;85550.89;;;25.09;14.97
40948;BME280;49382;-25.924;28.194;2023-06-22T11:01:46;85549.12;;;24.20;16.01
40948;BME280;49382;-25.924;28.194;2023-06-22T11:04:12;85546.47;;;24.40;14.30
40948;BME280;49382;-25.924;28.194;2023-06-22T11:06:37;85545.49;;;23.70;14.77
40948;BME280;49382;-25.924;28.194;2023-06-22T11:09:03;85537.09;;;23.73;15.51
40948;BME280;49382;-25.924;28.194;2023-06-22T11:11:28;85539.41;;;23.82;14.38
40948;BME280;49382;-25.924;28.194;2023-06-22T11:13:54;85538.38;;;23.45;15.73
40948;BME280;49382;-25.924;28.194;2023-06-22T11:16:18;85538.71;;;23.99;14.58
40948;BME280;49382;-25.924;28.194;2023-06-22T11:18:44;85532.10;;;24.13;13.49
40948;BME280;49382;-25.924;28.194;2023-06-22T11:21:09;85530.27;;;23.02;13.92
40948;BME280;49382;-25.924;28.194;2023-06-22T11:23:34;85529.58;;;22.56;14.71
40948;BME280;49382;-25.924;28.194;2023-06-22T11:25:59;85534.35;;;22.95;14.50
40948;BME280;49382;-25.924;28.194;2023-06-22T11:28:24;85532.11;;;22.63;14.39
40948;BME280;49382;-25.924;28.194;2023-06-22T11:30:50;85532.89;;;22.47;14.11
40948;BME280;49382;-25.924;28.194;2023-06-22T11:33:15;85529.99;;;22.60;14.72
40948;BME280;49382;-25.924;28.194;2023-06-22T11:35:40;85529.53;;;22.44;14.83
40948;BME280;49382;-25.924;28.194;2023-06-22T11:38:05;85531.43;;;22.43;14.63
40948;BME280;49382;-25.924;28.194;2023-06-22T11:40:30;85526.44;;;22.40;13.30
40948;BME280;49382;-25.924;28.194;2023-06-22T11:42:55;85522.84;;;22.37;14.05
40948;BME280;49382;-25.924;28.194;2023-06-22T11:45:20;85519.20;;;22.62;13.86
40948;BME280;49382;-25.924;28.194;2023-06-22T11:47:45;85514.92;;;22.93;14.08
40948;BME280;49382;-25.924;28.194;2023-06-22T11:50:11;85511.14;;;22.76;14.10
40948;BME280;49382;-25.924;28.194;2023-06-22T11:52:36;85512.00;;;23.94;13.77
40948;BME280;49382;-25.924;28.194;2023-06-22T11:55:01;85508.22;;;23.49;14.12
40948;BME280;49382;-25.924;28.194;2023-06-22T11:57:26;85503.98;;;23.39;14.30
40948;BME280;49382;-25.924;28.194;2023-06-22T11:59:51;85501.28;;;23.46;14.27
40948;BME280;49382;-25.924;28.194;2023-06-22T12:02:16;85497.00;;;21.68;14.69
40948;BME280;49382;-25.924;28.194;2023-06-22T12:04:41;85503.43;;;23.13;13.64
40948;BME280;49382;-25.924;28.194;2023-06-22T12:07:07;85503.76;;;23.49;13.53
40948;BME280;49382;-25.924;28.194;2023-06-22T12:09:33;85504.39;;;23.67;14.01
40948;BME280;49382;-25.924;28.194;2023-06-22T12:11:58;85505.19;;;23.80;13.47
40948;BME280;49382;-25.924;28.194;2023-06-22T12:14:24;85501.39;;;23.73;12.51
40948;BME280;49382;-25.924;28.194;2023-06-22T12:16:49;85499.99;;;23.45;12.67
40948;BME280;49382;-25.924;28.194;2023-06-22T12:19:14;85495.72;;;21.79;13.56
40948;BME280;49382;-25.924;28.194;2023-06-22T12:21:40;85498.58;;;22.75;13.04
40948;BME280;49382;-25.924;28.194;2023-06-22T12:24:06;85501.38;;;23.36;12.76
40948;BME280;49382;-25.924;28.194;2023-06-22T12:26:31;85495.74;;;22.30;13.60
40948;BME280;49382;-25.924;28.194;2023-06-22T12:28:56;85498.05;;;22.82;12.97
40948;BME280;49382;-25.924;28.194;2023-06-22T12:31:22;85494.48;;;22.89;13.02
40948;BME280;49382;-25.924;28.194;2023-06-22T12:33:47;85494.72;;;22.26;13.56